createdAt,value
2023-02-26T00:02:10.808Z,100.00
2023-02-26T00:08:54.395Z,100.00
2023-02-26T00:15:37.465Z,100.00
2023-02-26T00:22:20.682Z,100.00
2023-02-26T00:29:04.721Z,100.00
2023-02-26T00:35:47.145Z,100.00
2023-02-26T00:42:30.944Z,100.00
2023-02-26T00:49:52.531Z,100.00
2023-02-26T00:56:35.039Z,100.00
2023-02-26T01:03:17.787Z,100.00
2023-02-26T01:10:00.730Z,100.00
2023-02-26T01:17:23.236Z,100.00
2023-02-26T01:24:12.053Z,100.00
2023-02-26T01:31:01.588Z,100.00
2023-02-26T01:37:58.111Z,100.00
2023-02-26T01:44:55.792Z,100.00
2023-02-26T01:51:54.912Z,100.00
2023-02-26T01:58:37.975Z,100.00
2023-02-26T02:05:33.002Z,100.00
2023-02-26T02:12:27.274Z,100.00
2023-02-26T02:19:57.392Z,100.00
2023-02-26T02:26:56.734Z,100.00
2023-02-26T02:34:01.768Z,100.00
2023-02-26T02:40:52.484Z,100.00
2023-02-26T02:47:40.697Z,100.00
2023-02-26T02:55:00.840Z,100.00
2023-02-26T03:01:48.320Z,100.00
2023-02-26T03:08:44.375Z,100.00
2023-02-26T03:15:47.455Z,100.00
2023-02-26T03:23:14.638Z,100.00
2023-02-26T03:30:07.846Z,100.00
2023-02-26T03:37:01.509Z,100.00
2023-02-26T03:43:54.248Z,100.00
2023-02-26T03:50:51.071Z,100.00
2023-02-26T03:57:41.296Z,100.00
2023-02-26T04:05:19.908Z,100.00
2023-02-26T04:12:03.981Z,100.00
2023-02-26T04:18:46.618Z,100.00
2023-02-26T04:25:29.743Z,100.00
2023-02-26T04:32:12.505Z,100.00
2023-02-26T04:38:55.107Z,100.00
2023-02-26T04:45:37.712Z,100.00
2023-02-26T04:52:20.259Z,100.00
2023-02-26T04:59:03.788Z,100.00
2023-02-26T05:05:47.233Z,100.00
2023-02-26T05:12:30.225Z,100.00
2023-02-26T05:19:12.698Z,100.00
2023-02-26T05:25:57.382Z,100.00
2023-02-26T05:32:39.954Z,100.00
2023-02-26T05:39:22.288Z,100.00
2023-02-26T05:46:05.382Z,100.00
2023-02-26T05:52:47.826Z,100.00
2023-02-26T05:59:30.323Z,100.00
2023-02-26T06:06:18.091Z,100.00
2023-02-26T06:13:00.374Z,100.00
2023-02-26T06:19:43.051Z,100.00
2023-02-26T06:26:25.632Z,100.00
2023-02-26T06:33:08.077Z,100.00
2023-02-26T06:39:50.437Z,100.00
2023-02-26T06:46:33.178Z,100.00
2023-02-26T06:53:15.874Z,100.00
2023-02-26T06:59:58.531Z,100.00
2023-02-26T07:06:41.202Z,100.00
2023-02-26T07:13:23.775Z,97.90
2023-02-26T07:20:10.183Z,94.27
2023-02-26T07:26:53.231Z,90.77
2023-02-26T07:33:35.714Z,89.72
2023-02-26T07:40:18.972Z,87.28
2023-02-26T07:47:01.710Z,88.04
2023-02-26T07:53:44.129Z,86.47
2023-02-26T08:00:26.702Z,83.16
2023-02-26T08:07:10.611Z,81.33
2023-02-26T08:13:53.748Z,79.12
2023-02-26T08:20:36.245Z,75.08
2023-02-26T08:27:19.275Z,72.88
2023-02-26T08:34:02.125Z,72.78
2023-02-26T08:40:44.778Z,72.23
2023-02-26T08:47:29.031Z,72.50
2023-02-26T08:54:12.179Z,73.54
2023-02-26T09:00:54.720Z,73.29
2023-02-26T09:07:37.095Z,72.50
2023-02-26T09:14:19.613Z,71.93
2023-02-26T09:21:02.941Z,71.12
2023-02-26T09:27:47.946Z,68.94
2023-02-26T09:34:33.185Z,69.49
2023-02-26T09:41:28.715Z,70.48
2023-02-26T09:48:17.712Z,70.96
2023-02-26T09:55:39.180Z,70.11
2023-02-26T10:02:39.082Z,70.34
2023-02-26T10:09:39.323Z,69.37
2023-02-26T10:16:27.145Z,69.30
2023-02-26T10:23:22.336Z,70.54
2023-02-26T10:30:21.965Z,69.75
2023-02-26T10:37:20.795Z,68.24
2023-02-26T10:44:40.251Z,67.14
2023-02-26T10:51:29.029Z,67.73
2023-02-26T10:58:23.858Z,68.52
2023-02-26T11:05:18.496Z,68.54
2023-02-26T11:12:17.037Z,70.77
2023-02-26T11:19:01.508Z,71.69
2023-02-26T11:25:45.075Z,72.21
2023-02-26T11:32:37.106Z,72.01
2023-02-26T11:39:24.277Z,73.68
2023-02-26T11:46:06.718Z,78.41
2023-02-26T11:53:24.054Z,80.10
2023-02-26T12:00:35.882Z,81.81
2023-02-26T12:07:19.497Z,82.12
2023-02-26T12:14:36.887Z,82.26
2023-02-26T12:21:49.160Z,80.91
2023-02-26T12:29:15.104Z,78.25
2023-02-26T12:36:19.003Z,77.11
2023-02-26T12:43:17.311Z,74.73
2023-02-26T12:50:10.099Z,73.83
2023-02-26T12:57:38.263Z,72.08
2023-02-26T13:04:35.934Z,70.71
2023-02-26T13:12:10.441Z,70.14
2023-02-26T13:19:28.087Z,70.10
2023-02-26T13:26:13.910Z,67.90
2023-02-26T13:32:59.173Z,68.07
2023-02-26T13:39:51.369Z,67.82
2023-02-26T13:47:00.277Z,68.55
2023-02-26T13:53:51.266Z,68.23
2023-02-26T14:00:35.653Z,67.75
2023-02-26T14:07:38.120Z,67.79
2023-02-26T14:14:25.565Z,67.61
2023-02-26T14:21:26.959Z,68.61
2023-02-26T14:28:27.876Z,69.30
2023-02-26T14:35:20.830Z,67.84
2023-02-26T14:42:20.999Z,67.68
2023-02-26T14:49:05.215Z,67.31
2023-02-26T14:56:27.534Z,65.64
2023-02-26T15:04:16.311Z,64.45
2023-02-26T15:11:38.558Z,65.96
2023-02-26T15:19:10.625Z,66.79
2023-02-26T15:25:53.162Z,69.33
2023-02-26T15:32:38.532Z,74.20
2023-02-26T15:39:24.522Z,77.24
2023-02-26T15:46:09.434Z,80.94
2023-02-26T15:53:01.775Z,82.27
2023-02-26T15:59:49.052Z,83.01
2023-02-26T16:06:38.138Z,84.08
2023-02-26T16:13:37.799Z,84.57
2023-02-26T16:20:27.133Z,85.19
2023-02-26T16:27:13.708Z,85.63
2023-02-26T16:34:05.106Z,86.00
2023-02-26T16:41:00.932Z,86.35
2023-02-26T16:47:46.301Z,86.54
2023-02-26T16:54:41.086Z,85.31
2023-02-26T17:01:24.285Z,84.94
2023-02-26T17:08:33.801Z,86.22
2023-02-26T17:15:32.177Z,92.89
2023-02-26T17:22:26.564Z,97.69
2023-02-26T17:29:23.193Z,100.00
2023-02-26T17:36:06.235Z,100.00
2023-02-26T17:42:49.453Z,100.00
2023-02-26T17:49:31.821Z,100.00
2023-02-26T17:56:32.995Z,100.00
2023-02-26T18:03:16.460Z,100.00
2023-02-26T18:09:58.963Z,100.00
2023-02-26T18:16:45.422Z,100.00
2023-02-26T18:23:27.899Z,100.00
2023-02-26T18:30:23.173Z,100.00
2023-02-26T18:37:05.847Z,100.00
2023-02-26T18:43:51.332Z,100.00
2023-02-26T18:50:33.980Z,100.00
2023-02-26T18:57:17.158Z,100.00
2023-02-26T19:03:59.684Z,100.00
2023-02-26T19:10:42.051Z,100.00
2023-02-26T19:17:24.425Z,100.00
2023-02-26T19:24:12.212Z,100.00
2023-02-26T19:30:55.391Z,100.00
2023-02-26T19:37:37.838Z,100.00
2023-02-26T19:44:22.853Z,100.00
2023-02-26T19:51:06.224Z,100.00
2023-02-26T19:57:49.375Z,100.00
2023-02-26T20:04:31.997Z,100.00
2023-02-26T20:11:15.127Z,100.00
2023-02-26T20:17:57.557Z,100.00
2023-02-26T20:24:39.931Z,100.00
2023-02-26T20:31:22.891Z,100.00
2023-02-26T20:38:06.358Z,100.00
2023-02-26T20:45:05.787Z,100.00
2023-02-26T20:51:50.565Z,100.00
2023-02-26T20:58:33.610Z,100.00
2023-02-26T21:05:18.514Z,100.00
2023-02-26T21:12:01.843Z,100.00
2023-02-26T21:18:46.683Z,100.00
2023-02-26T21:25:34.258Z,100.00
2023-02-26T21:32:20.239Z,100.00
2023-02-26T21:39:05.668Z,100.00
2023-02-26T21:46:02.378Z,100.00
2023-02-26T21:52:45.192Z,100.00
2023-02-26T21:59:30.118Z,100.00
2023-02-26T22:06:18.680Z,100.00
2023-02-26T22:13:14.790Z,100.00
2023-02-26T22:19:59.343Z,100.00
2023-02-26T22:26:56.546Z,100.00
2023-02-26T22:33:48.931Z,100.00
2023-02-26T22:40:32.461Z,100.00
2023-02-26T22:47:17.065Z,100.00
2023-02-26T22:54:05.579Z,100.00
2023-02-26T23:00:53.988Z,100.00
2023-02-26T23:07:38.438Z,100.00
2023-02-26T23:14:22.837Z,100.00
2023-02-26T23:21:08.030Z,100.00
2023-02-26T23:27:53.644Z,100.00
2023-02-26T23:34:36.029Z,100.00
2023-02-26T23:41:18.547Z,100.00
2023-02-26T23:48:01.199Z,100.00
2023-02-26T23:54:43.730Z,100.00
